Portada
METAR-TAF:

METAR-TAF

Aeroports :

Savannakhet, Laos

latitud: 16-33-24N, longitud: 104-45-34E, altitud: 155 m

Observació

L'informe es va fer fa 9 hores i 6 minuts, a les 12:00 UTC
Vent 2 kt del Nord
Temperatura 28°C
Humitat 84%
Pressió 1007 hPa
Visibilitat: 3000 m
Núvols disperses a una alçada de 1800 ft
Cel ennuvolat a una alçada de 10000 ft
boirina

METAR: VLSK 291200Z 36002KT 3000 BR SCT018 BKN100 28/25 Q1007 NOSIG

Hora: 04:06 (21:06 UTC)

Pronòstic

L'informe es va fer fa 4 hores i 6 minuts, a les 17:00 UTC
Pronòstic vàlid del 29 a les 18 UTC al 30 a les 18 UTC
Vent 6 kt del Sud-Est
Visibilitat: 4000 m
Núvols disperses a una alçada de 1600 ft
Núvols disperses a una alçada de 4000 ft
Núvols disperses a una alçada de 9300 ft
boirina

TAF: VLSK 291700Z 2918/3018 14006KT 4000 BR SCT016 SCT040 SCT093

Observacions i pronòstics meteorològics de més de 4000 aeroports (METAR i TAF).

Les estacions disponibles són els punts grocs i vermells al mapa.

Posi el ratolí al punt desitjat per veure el nom de l'estació.

Feu clic per veure les observacions i els pronòstics meteorològics.

Per canviar el mapa: feu clic els botons verds amb una creu de color negre per apropar; al botó verd amb un guió per allunyar la imatge; o en les fletxes verdes per a mapes adjacents.


METAR-TAF: